Time;durP1;ratioP1;P1;durP2;ratioP2;P2;SDS_P1;SDS_P2;PMS_P1;PMS_P2;Temp;Humidity;BMP_temperature;BMP_pressure;BME280_temperature;BME280_humidity;BME280_pressure;Samples;Min_cycle;Max_cycle;Signal;HPM_P1;HPM_P2
2022/12/12 00:00:18;;;;;;;;;40.75;32.50;;;;;-0.01;68.88;100349.06;5066268;28;45856;-57
2022/12/12 00:02:43;;;;;;;;;40.25;35.75;;;;;-0.02;68.78;100353.66;5073929;28;45468;-53
2022/12/12 00:05:09;;;;;;;;;37.50;31.00;;;;;-0.56;68.82;100278.88;5075137;28;45312;-53
2022/12/12 00:07:34;;;;;;;;;27.75;25.00;;;;;-0.19;68.67;100343.66;5074462;27;45311;-52
2022/12/12 00:10:00;;;;;;;;;45.75;35.50;;;;;-0.36;69.04;100323.75;5072830;28;45325;-50
2022/12/12 00:12:26;;;;;;;;;40.50;32.00;;;;;-0.19;69.15;100355.31;5074824;28;45736;-54
2022/12/12 00:14:51;;;;;;;;;37.50;35.50;;;;;-0.17;68.96;100347.03;5076748;28;45609;-55
2022/12/12 00:17:17;;;;;;;;;44.00;34.50;;;;;-0.15;68.91;100356.69;5078030;28;45738;-56
2022/12/12 00:19:42;;;;;;;;;43.50;34.00;;;;;-0.19;69.20;100355.31;5076441;28;45518;-55
2022/12/12 00:22:08;;;;;;;;;53.00;34.00;;;;;-0.18;69.79;100359.72;5078314;27;45323;-56
2022/12/12 00:24:34;;;;;;;;;45.25;37.25;;;;;-0.31;69.91;100330.38;5078268;27;45408;-57
2022/12/12 00:26:59;;;;;;;;;36.00;31.00;;;;;-0.17;69.53;100356.00;5077608;27;45977;-57
2022/12/12 00:29:25;;;;;;;;;34.00;31.50;;;;;-0.21;70.03;100349.19;5077660;28;45295;-55
2022/12/12 00:31:50;;;;;;;;;38.75;33.75;;;;;-0.34;69.87;100321.75;5063626;28;45446;-56
2022/12/12 00:34:16;;;;;;;;;48.25;33.00;;;;;-0.10;70.11;100358.97;5057935;28;45305;-56
2022/12/12 00:36:41;;;;;;;;;27.25;22.50;;;;;-0.08;69.63;100356.09;5057282;28;45719;-55
2022/12/12 00:39:07;;;;;;;;;45.00;27.75;;;;;-0.42;69.81;100317.94;5057029;28;45423;-55
2022/12/12 00:41:33;;;;;;;;;34.75;29.50;;;;;-0.20;69.98;100358.16;5057288;28;45317;-57
2022/12/12 00:43:58;;;;;;;;;37.50;28.00;;;;;-0.17;70.09;100369.50;5056401;28;45529;-58
2022/12/12 00:46:24;;;;;;;;;37.00;26.00;;;;;-0.35;69.57;100331.69;5056014;28;46632;-56
2022/12/12 00:48:52;;;;;;;;;44.00;32.75;;;;;-1.09;69.90;100204.94;5057241;28;45373;-58
2022/12/12 00:51:18;;;;;;;;;37.25;30.50;;;;;-0.10;69.86;100368.88;5057434;28;45293;-56
2022/12/12 00:53:44;;;;;;;;;40.50;33.25;;;;;-0.12;69.87;100362.81;5048448;28;45636;-55
2022/12/12 00:56:09;;;;;;;;;46.50;32.25;;;;;-0.15;70.20;100362.09;5051212;28;45401;-53
2022/12/12 00:58:35;;;;;;;;;39.75;26.25;;;;;-0.06;70.50;100367.59;5057356;28;45309;-55
2022/12/12 01:01:05;;;;;;;;;37.75;31.50;;;;;-0.02;69.71;100361.75;5057183;28;45292;-57
2022/12/12 01:03:34;;;;;;;;;38.50;27.50;;;;;0.01;69.86;100373.22;5057703;28;45675;-56
2022/12/12 01:05:59;;;;;;;;;38.50;30.50;;;;;-0.10;69.62;100368.88;5056786;28;45470;-56
2022/12/12 01:08:25;;;;;;;;;32.00;27.75;;;;;-0.23;70.24;100351.22;5057356;28;45575;-55
2022/12/12 01:10:51;;;;;;;;;27.50;26.50;;;;;-0.07;69.81;100368.56;5055410;28;45416;-55
2022/12/12 01:13:16;;;;;;;;;29.50;25.75;;;;;-0.07;70.03;100363.19;5057400;28;45400;-53
2022/12/12 01:15:41;;;;;;;;;34.25;31.50;;;;;-0.02;69.81;100364.44;5056782;28;45656;-56
2022/12/12 01:18:07;;;;;;;;;28.25;24.75;;;;;0.06;69.83;100360.97;5056777;28;45474;-57
2022/12/12 01:20:33;;;;;;;;;34.50;32.50;;;;;0.06;69.91;100368.22;5057084;28;45337;-57
2022/12/12 01:22:58;;;;;;;;;31.25;27.00;;;;;0.06;69.64;100369.06;5056960;28;45244;-55
2022/12/12 01:25:24;;;;;;;;;33.50;28.75;;;;;0.08;69.61;100363.50;5072161;28;46554;-56
2022/12/12 01:27:49;;;;;;;;;26.50;19.50;;;;;0.10;69.97;100367.75;5056562;28;45341;-57
2022/12/12 01:30:17;;;;;;;;;37.75;26.75;;;;;0.14;69.53;100371.00;5055213;28;45428;-56
2022/12/12 01:32:43;;;;;;;;;31.50;28.00;;;;;0.06;69.23;100360.13;5074347;28;45292;-56
2022/12/12 01:35:09;;;;;;;;;25.75;23.00;;;;;0.16;69.15;100371.69;5075319;28;45760;-52
2022/12/12 01:37:35;;;;;;;;;37.75;27.00;;;;;-0.03;68.87;100335.75;5058411;28;45464;-56
2022/12/12 01:40:00;;;;;;;;;39.25;27.25;;;;;0.23;69.04;100374.63;5075195;28;45325;-57
2022/12/12 01:42:27;;;;;;;;;35.50;30.25;;;;;0.18;69.22;100376.94;5075153;28;45540;-55
2022/12/12 01:44:52;;;;;;;;;33.00;28.25;;;;;0.20;69.31;100378.50;5076351;27;45722;-55
2022/12/12 01:47:19;;;;;;;;;24.25;21.50;;;;;0.22;68.45;100375.66;5076237;27;45488;-55
2022/12/12 01:49:50;;;;;;;;;30.50;27.75;;;;;0.02;68.60;100332.59;5076843;28;45385;-55
2022/12/12 01:52:20;;;;;;;;;41.00;32.50;;;;;0.23;68.60;100377.34;5076872;27;45395;-56
2022/12/12 01:54:48;;;;;;;;;31.50;26.50;;;;;0.26;68.92;100372.47;5076310;28;46086;-53
2022/12/12 01:57:16;;;;;;;;;30.20;25.40;;;;;0.19;68.56;100370.53;5074854;28;45400;-57
2022/12/12 01:59:42;;;;;;;;;24.60;18.80;;;;;0.28;68.00;100374.19;5074893;28;45666;-53
2022/12/12 02:02:07;;;;;;;;;30.75;21.25;;;;;0.25;68.26;100367.22;5075412;28;45646;-53
2022/12/12 02:04:33;;;;;;;;;25.75;23.75;;;;;0.26;68.09;100369.78;5030171;28;45432;-54
2022/12/12 02:06:58;;;;;;;;;29.00;22.75;;;;;0.26;68.23;100379.72;5073649;28;45538;-55
2022/12/12 02:09:24;;;;;;;;;30.50;24.50;;;;;0.27;68.35;100370.66;5073411;28;45824;-56
2022/12/12 02:11:54;;;;;;;;;30.75;25.50;;;;;0.27;68.47;100365.25;5074770;27;45571;-55
2022/12/12 02:14:22;;;;;;;;;32.25;28.75;;;;;0.10;67.95;100356.97;5076060;27;46153;-55
2022/12/12 02:17:11;;;;;;;;;25.80;18.60;;;;;0.03;68.19;100346.91;5074913;28;45491;-55
2022/12/12 02:19:58;;;;;;;;;29.80;22.40;;;;;0.02;68.41;100332.59;5075025;28;45439;-59
2022/12/12 02:23:01;;;;;;;;;22.50;17.50;;;;;0.21;67.96;100363.16;5076236;28;45402;-57
2022/12/12 02:25:44;;;;;;;;;31.25;24.75;;;;;0.16;68.77;100373.56;5075975;28;45332;-56
2022/12/12 02:28:24;;;;;;;;;29.00;26.60;;;;;0.08;68.38;100369.78;5075759;28;45411;-57
2022/12/12 02:30:59;;;;;;;;;40.50;33.75;;;;;0.18;68.55;100376.94;5074390;28;45384;-50
2022/12/12 02:33:43;;;;;;;;;29.50;24.00;;;;;0.18;68.02;100380.50;5075498;28;45414;-57
2022/12/12 02:36:29;;;;;;;;;35.00;30.75;;;;;0.23;68.49;100377.34;5075029;28;45631;-57
2022/12/12 02:39:17;;;;;;;;;27.20;23.40;;;;;0.25;68.49;100378.88;5074505;28;45446;-56
2022/12/12 02:41:45;;;;;;;;;26.25;22.25;;;;;-0.07;68.08;100333.50;5074068;28;45393;-55
2022/12/12 02:44:27;;;;;;;;;33.50;27.25;;;;;0.27;68.41;100384.13;5057952;28;45504;-51
2022/12/12 02:47:27;;;;;;;;;32.50;28.75;;;;;0.30;68.17;100374.84;5073732;28;46702;-54
2022/12/12 02:50:00;;;;;;;;;24.60;21.40;;;;;0.01;67.92;100316.56;5077189;27;45473;-55
2022/12/12 02:52:25;;;;;;;;;44.75;29.25;;;;;0.33;67.81;100371.88;5091249;27;45463;-56
2022/12/12 02:54:50;;;;;;;;;34.75;26.50;;;;;0.23;67.76;100347.66;5057436;28;45183;-57
2022/12/12 02:57:19;;;;;;;;;38.00;25.25;;;;;0.09;67.98;100335.50;5075180;27;46436;-55
2022/12/12 02:59:50;;;;;;;;;31.00;26.20;;;;;0.31;68.05;100368.47;5075155;27;45398;-55
2022/12/12 03:02:41;;;;;;;;;31.25;26.25;;;;;0.28;67.93;100368.78;5056920;28;45488;-55
2022/12/12 03:08:10;;;;;;;;;34.75;26.75;;;;;0.22;67.58;100364.84;5051120;28;45989;-51
2022/12/12 03:10:45;;;;;;;;;28.40;21.40;;;;;0.16;68.01;100354.66;5054777;28;45372;-55
2022/12/12 03:13:19;;;;;;;;;25.40;22.00;;;;;0.25;67.27;100369.94;5037542;28;45376;-56
2022/12/12 03:15:55;;;;;;;;;36.50;27.75;;;;;0.19;68.26;100368.69;5055070;28;45393;-52
2022/12/12 03:18:30;;;;;;;;;31.75;25.25;;;;;0.22;67.60;100356.75;5053359;28;45573;-51
2022/12/12 03:21:03;;;;;;;;;33.40;26.20;;;;;-0.09;68.06;100325.56;5053704;28;45350;-57
2022/12/12 03:23:34;;;;;;;;;30.50;25.00;;;;;0.04;68.06;100330.59;5054737;28;45441;-54
2022/12/12 03:26:03;;;;;;;;;26.25;26.00;;;;;0.24;68.04;100358.31;5054035;28;45383;-55
2022/12/12 03:28:31;;;;;;;;;27.80;20.40;;;;;0.20;67.89;100337.13;5053246;28;45360;-55
2022/12/12 03:30:56;;;;;;;;;27.60;25.00;;;;;0.34;67.91;100357.34;5036745;28;45323;-56
2022/12/12 03:33:36;;;;;;;;;32.75;27.25;;;;;0.30;67.77;100364.91;5069944;28;45320;-55
2022/12/12 03:36:11;;;;;;;;;27.75;21.50;;;;;0.32;67.47;100362.91;5073879;28;45381;-54
2022/12/12 03:38:40;;;;;;;;;23.50;22.25;;;;;-0.20;67.74;100277.22;5073393;28;46058;-55
2022/12/12 03:41:08;;;;;;;;;29.40;22.80;;;;;0.36;67.58;100361.59;5074180;27;45465;-56
2022/12/12 03:43:45;;;;;;;;;29.20;23.80;;;;;0.38;67.74;100358.75;5072044;28;45396;-52
2022/12/12 03:46:30;;;;;;;;;36.00;25.00;;;;;0.46;67.87;100368.78;5056151;28;45254;-57
2022/12/12 03:49:11;;;;;;;;;26.00;23.75;;;;;0.35;67.44;100354.50;5057842;28;45378;-57
2022/12/12 03:51:39;;;;;;;;;28.60;26.20;;;;;0.03;67.87;100315.41;5060086;28;45420;-54
2022/12/12 03:54:11;;;;;;;;;28.00;27.00;;;;;0.39;68.08;100377.47;5059381;28;45396;-57
2022/12/12 03:56:42;;;;;;;;;27.75;21.00;;;;;0.15;67.98;100343.00;5076738;28;45374;-53
2022/12/12 03:59:17;;;;;;;;;23.25;17.50;;;;;0.40;68.20;100378.34;5059577;28;45603;-57
2022/12/12 04:01:47;;;;;;;;;31.00;25.00;;;;;0.33;67.95;100383.53;5077147;28;45661;-56
2022/12/12 04:04:34;;;;;;;;;22.50;14.50;;;;;0.34;67.77;100379.81;5077196;27;45487;-56
2022/12/12 04:07:02;;;;;;;;;32.25;28.25;;;;;0.32;68.14;100381.81;5059873;28;45487;-54
2022/12/12 04:15:38;;;;;;;;;29.00;24.25;;;;;0.34;68.38;100378.97;5062129;28;45314;-54
2022/12/12 04:18:25;;;;;;;;;37.50;28.25;;;;;0.36;68.24;100387.75;5077308;28;45385;-55
2022/12/12 04:24:32;;;;;;;;;24.75;23.75;;;;;0.36;67.38;100388.59;5034571;28;45365;-56
2022/12/12 04:27:04;;;;;;;;;22.50;21.25;;;;;0.31;67.88;100393.63;5064662;28;45670;-54
2022/12/12 04:29:31;;;;;;;;;29.00;23.75;;;;;0.31;67.85;100395.47;5059147;28;45393;-57
2022/12/12 04:32:12;;;;;;;;;27.00;24.50;;;;;0.28;68.69;100393.94;5074417;27;46049;-55
2022/12/12 04:34:57;;;;;;;;;33.25;25.50;;;;;0.33;68.56;100401.56;5056278;28;45430;-56
2022/12/12 04:37:26;;;;;;;;;33.00;28.00;;;;;0.37;68.38;100397.56;5055065;28;45457;-56
2022/12/12 04:39:53;;;;;;;;;28.75;22.75;;;;;0.32;68.25;100389.06;5055263;28;45350;-59
2022/12/12 04:42:21;;;;;;;;;34.00;26.00;;;;;0.26;68.64;100388.69;5011177;28;1260051;-54
2022/12/12 04:44:47;;;;;;;;;33.50;29.75;;;;;0.34;68.25;100393.31;5039042;28;45782;-56
2022/12/12 04:47:13;;;;;;;;;28.00;23.00;;;;;0.25;68.23;100389.69;5039092;28;45371;-54
2022/12/12 04:49:38;;;;;;;;;30.75;26.00;;;;;0.40;68.48;100394.56;5056206;28;45357;-56
2022/12/12 04:52:09;;;;;;;;;32.75;30.50;;;;;0.35;68.34;100389.63;5055808;28;47006;-59
2022/12/12 04:54:46;;;;;;;;;37.50;29.00;;;;;0.26;68.11;100372.47;5055516;28;45674;-56
2022/12/12 04:57:17;;;;;;;;;41.00;32.00;;;;;0.45;68.14;100397.66;5023823;28;45378;-58
2022/12/12 04:59:44;;;;;;;;;37.50;30.00;;;;;0.32;67.97;100394.47;5055374;28;45387;-57
2022/12/12 05:03:00;;;;;;;;;27.50;25.50;;;;;0.30;67.99;100399.16;5039045;28;46012;-52
2022/12/12 05:05:31;;;;;;;;;30.25;21.50;;;;;0.28;68.45;100406.56;4997610;28;45780;-55
2022/12/12 05:08:12;;;;;;;;;30.50;27.50;;;;;0.25;68.72;100397.78;4998233;28;45457;-57
2022/12/12 05:10:44;;;;;;;;;31.50;28.00;;;;;0.06;68.15;100352.84;5026197;28;45428;-54
2022/12/12 05:13:18;;;;;;;;;39.50;29.00;;;;;0.40;68.01;100397.25;5055142;28;45472;-54
2022/12/12 05:15:43;;;;;;;;;36.00;28.25;;;;;0.28;68.37;100368.78;5039202;28;45368;-57
2022/12/12 05:18:09;;;;;;;;;32.25;28.50;;;;;0.45;67.96;100400.34;5055680;28;45374;-56
2022/12/12 05:20:35;;;;;;;;;42.25;32.25;;;;;0.42;68.62;100408.75;5056910;28;45649;-57
2022/12/12 05:23:00;;;;;;;;;32.75;22.25;;;;;0.35;68.24;100410.34;5056483;28;46245;-59
2022/12/12 05:25:26;;;;;;;;;31.25;28.00;;;;;0.16;68.42;100390.59;5056464;28;45354;-57
2022/12/12 05:27:51;;;;;;;;;27.75;24.25;;;;;0.33;68.70;100402.44;5056684;28;45399;-54
2022/12/12 05:30:17;;;;;;;;;31.75;28.50;;;;;0.34;68.50;100387.91;5055534;28;45531;-53
2022/12/12 05:32:42;;;;;;;;;28.75;21.00;;;;;0.42;68.24;100384.44;5063070;28;46080;-55
2022/12/12 05:35:08;;;;;;;;;31.25;26.50;;;;;0.34;68.51;100368.16;5076444;28;45324;-53
2022/12/12 05:37:34;;;;;;;;;33.50;25.50;;;;;0.33;68.34;100355.66;5058441;28;45332;-56
2022/12/12 05:39:59;;;;;;;;;26.25;25.25;;;;;0.25;68.09;100341.09;5076681;27;45840;-57
2022/12/12 05:42:25;;;;;;;;;30.75;27.75;;;;;0.10;68.50;100324.56;5076667;28;45840;-55
2022/12/12 05:44:50;;;;;;;;;36.50;29.25;;;;;0.51;68.27;100390.75;5076770;28;45345;-56
2022/12/12 05:47:17;;;;;;;;;29.75;27.00;;;;;0.51;67.72;100388.94;5076720;28;45453;-58
2022/12/12 05:49:43;;;;;;;;;36.00;31.25;;;;;0.31;67.95;100357.69;5076719;28;45387;-55
2022/12/12 05:52:08;;;;;;;;;29.00;27.75;;;;;0.43;67.84;100385.28;5076644;27;46266;-54
2022/12/12 05:54:34;;;;;;;;;31.50;30.00;;;;;0.45;67.98;100388.69;5035671;28;45853;-56
2022/12/12 05:56:59;;;;;;;;;34.50;25.25;;;;;0.41;68.55;100398.94;5055261;28;45656;-60
2022/12/12 05:59:25;;;;;;;;;30.50;26.50;;;;;0.40;68.09;100395.41;5056619;28;46076;-55
2022/12/12 06:01:51;;;;;;;;;37.75;29.00;;;;;0.33;68.09;100399.72;5055885;28;46598;-58
2022/12/12 06:04:17;;;;;;;;;30.25;24.00;;;;;-0.17;68.03;100320.94;5056113;28;45960;-57
2022/12/12 06:06:42;;;;;;;;;33.25;28.75;;;;;0.34;68.44;100414.06;5056321;28;45293;-55
2022/12/12 06:09:07;;;;;;;;;36.00;28.50;;;;;0.10;67.69;100364.19;5056571;28;45399;-56
2022/12/12 06:11:33;;;;;;;;;29.50;25.25;;;;;0.41;67.57;100407.03;5054938;28;46422;-56
2022/12/12 06:13:58;;;;;;;;;29.25;25.50;;;;;0.40;67.77;100395.41;5055928;28;45439;-56
2022/12/12 06:16:24;;;;;;;;;26.00;21.75;;;;;0.09;67.69;100351.72;5056248;28;45214;-51
2022/12/12 06:18:53;;;;;;;;;29.00;27.00;;;;;0.12;67.64;100362.22;5056357;28;45482;-53
2022/12/12 06:21:19;;;;;;;;;31.75;27.75;;;;;0.36;67.81;100396.72;5055867;28;46530;-53
2022/12/12 06:23:45;;;;;;;;;38.75;27.50;;;;;0.25;67.70;100386.13;5055939;28;45671;-58
2022/12/12 06:26:11;;;;;;;;;38.50;30.50;;;;;0.36;68.09;100410.22;5054528;28;45517;-59
2022/12/12 06:28:37;;;;;;;;;22.75;22.75;;;;;0.07;67.38;100370.78;5056143;28;45449;-57
2022/12/12 06:31:03;;;;;;;;;34.25;28.00;;;;;0.26;67.81;100401.31;5054309;28;47166;-57
2022/12/12 06:33:30;;;;;;;;;43.50;35.25;;;;;0.35;68.21;100413.06;5069733;28;45809;-53
2022/12/12 06:36:22;;;;;;;;;31.50;28.00;;;;;-0.26;67.81;100315.59;5075927;27;45458;-56
2022/12/12 06:38:49;;;;;;;;;31.75;26.00;;;;;0.39;68.34;100420.69;5075030;28;45377;-58
2022/12/12 06:41:15;;;;;;;;;36.50;27.75;;;;;0.44;68.39;100422.09;5075348;27;47036;-54
2022/12/12 06:43:40;;;;;;;;;38.00;27.75;;;;;0.47;68.03;100419.09;5075716;27;45810;-57
2022/12/12 06:46:07;;;;;;;;;50.00;37.00;;;;;0.21;67.99;100364.00;5075717;27;45418;-55
2022/12/12 06:48:33;;;;;;;;;34.75;28.25;;;;;0.48;67.77;100410.00;5075711;27;45328;-54
2022/12/12 06:50:59;;;;;;;;;36.00;30.00;;;;;0.46;68.28;100417.38;5075643;27;45524;-52
2022/12/12 06:53:24;;;;;;;;;34.25;29.00;;;;;0.49;67.72;100412.50;5074538;28;45335;-55
2022/12/12 06:55:50;;;;;;;;;39.75;34.75;;;;;0.21;67.71;100372.09;5067545;27;45460;-57
2022/12/12 06:58:16;;;;;;;;;30.00;26.25;;;;;0.49;68.17;100409.81;5074779;28;45378;-55
2022/12/12 07:00:41;;;;;;;;;32.00;28.00;;;;;0.55;67.69;100408.38;5073954;28;46816;-57
2022/12/12 07:03:07;;;;;;;;;39.75;29.25;;;;;0.50;67.79;100389.94;5075619;28;45462;-57
2022/12/12 07:05:33;;;;;;;;;36.50;31.00;;;;;0.57;68.14;100394.72;5074168;28;45288;-57
2022/12/12 07:08:01;;;;;;;;;40.50;31.25;;;;;0.47;68.25;100378.59;5075883;27;45857;-56
2022/12/12 07:10:28;;;;;;;;;26.50;24.75;;;;;0.54;67.50;100391.31;5075255;27;45815;-55
2022/12/12 07:12:54;;;;;;;;;41.00;31.75;;;;;0.53;67.45;100395.00;5074978;27;45323;-56
2022/12/12 07:15:20;;;;;;;;;32.50;28.25;;;;;0.43;67.21;100398.78;5075263;28;45180;-55
2022/12/12 07:17:45;;;;;;;;;39.00;32.00;;;;;0.35;67.36;100400.41;5075847;27;45535;-56
2022/12/12 07:20:11;;;;;;;;;33.25;28.25;;;;;0.36;67.93;100415.63;5075073;28;46085;-60
2022/12/12 07:22:36;;;;;;;;;39.25;29.00;;;;;0.35;67.62;100416.63;5075314;27;45440;-57
2022/12/12 07:25:02;;;;;;;;;32.75;27.25;;;;;0.38;67.74;100428.97;5073682;28;45459;-57
2022/12/12 07:27:28;;;;;;;;;44.50;33.75;;;;;0.31;67.50;100408.97;5075643;27;45465;-56
2022/12/12 07:29:53;;;;;;;;;39.25;31.75;;;;;0.08;67.62;100383.28;5075025;28;46358;-54
2022/12/12 07:32:19;;;;;;;;;28.00;26.25;;;;;0.25;68.03;100438.28;5072289;28;45327;-56
2022/12/12 07:34:44;;;;;;;;;35.75;26.75;;;;;0.25;68.40;100434.72;5055085;28;45411;-55
2022/12/12 07:37:10;;;;;;;;;36.25;33.00;;;;;0.28;67.79;100434.44;5055149;28;45505;-55
2022/12/12 07:39:36;;;;;;;;;41.50;32.50;;;;;0.28;68.04;100433.56;5054852;28;46450;-54
2022/12/12 07:42:01;;;;;;;;;37.00;29.75;;;;;0.13;67.50;100415.19;5054175;28;45548;-57
2022/12/12 07:44:27;;;;;;;;;34.25;30.75;;;;;0.28;67.85;100426.34;5054456;28;45309;-55
2022/12/12 07:46:52;;;;;;;;;36.75;30.25;;;;;0.34;67.91;100423.03;5054423;28;45659;-54
2022/12/12 07:49:18;;;;;;;;;39.75;32.00;;;;;0.32;67.71;100422.31;5054364;28;46458;-56
2022/12/12 07:51:43;;;;;;;;;38.25;31.25;;;;;0.30;67.88;100424.31;5054316;28;45335;-55
2022/12/12 07:54:09;;;;;;;;;25.50;25.00;;;;;0.29;67.83;100424.47;5054573;28;45400;-55
2022/12/12 07:56:35;;;;;;;;;35.00;30.50;;;;;0.33;68.05;100434.84;5054277;28;45545;-54
2022/12/12 07:59:00;;;;;;;;;40.00;32.25;;;;;0.33;67.11;100436.66;5054318;28;45359;-54
2022/12/12 08:01:26;;;;;;;;;40.75;32.00;;;;;0.30;67.34;100443.22;5052959;28;45425;-53
2022/12/12 08:03:51;;;;;;;;;35.75;29.50;;;;;0.30;67.79;100445.06;5038432;28;45935;-56
2022/12/12 08:06:18;;;;;;;;;34.75;29.75;;;;;0.20;67.77;100447.81;5071348;28;45577;-57
2022/12/12 08:08:44;;;;;;;;;32.25;28.00;;;;;0.03;67.50;100414.38;5056127;28;46324;-56
2022/12/12 08:11:11;;;;;;;;;43.75;31.75;;;;;0.26;67.45;100455.31;5072864;28;45476;-57
2022/12/12 08:13:36;;;;;;;;;38.00;26.00;;;;;0.27;67.54;100448.94;5074378;27;45484;-55
2022/12/12 08:16:03;;;;;;;;;34.25;28.50;;;;;0.34;67.78;100458.13;5074429;27;45296;-52
2022/12/12 08:18:28;;;;;;;;;34.50;34.25;;;;;0.26;67.72;100453.47;5074348;27;46831;-56
2022/12/12 08:20:54;;;;;;;;;40.75;33.75;;;;;0.19;67.66;100462.31;5073918;28;45281;-55
2022/12/12 08:23:19;;;;;;;;;43.75;38.00;;;;;0.16;67.91;100451.84;5074354;28;45415;-56
2022/12/12 08:25:45;;;;;;;;;29.00;27.00;;;;;0.15;67.84;100455.53;5074422;28;45167;-57
2022/12/12 08:28:10;;;;;;;;;41.50;29.25;;;;;0.19;67.69;100449.69;5074229;27;46158;-59
2022/12/12 08:30:36;;;;;;;;;34.75;30.00;;;;;-0.12;67.79;100411.38;5072989;28;45885;-59
2022/12/12 08:33:02;;;;;;;;;31.75;27.50;;;;;0.12;68.21;100454.00;5066917;28;45382;-58
2022/12/12 08:35:31;;;;;;;;;34.75;29.75;;;;;0.20;68.46;100461.31;5055848;28;45690;-54
2022/12/12 08:37:57;;;;;;;;;41.00;31.75;;;;;0.21;67.94;100447.66;5055978;28;46565;-54
2022/12/12 08:40:22;;;;;;;;;37.25;28.75;;;;;0.40;67.16;100471.03;5055887;28;45819;-50
2022/12/12 08:42:47;;;;;;;;;42.50;30.50;;;;;0.40;67.64;100480.97;5057828;28;45306;-51
2022/12/12 08:45:13;;;;;;;;;36.00;31.25;;;;;0.38;66.99;100488.38;5057277;28;45546;-53
2022/12/12 08:47:39;;;;;;;;;40.50;34.25;;;;;-0.27;67.04;100401.06;5057355;28;45347;-52
2022/12/12 08:50:05;;;;;;;;;39.25;30.50;;;;;0.31;67.17;100495.38;5055977;28;45378;-52
2022/12/12 08:52:30;;;;;;;;;38.75;33.00;;;;;0.31;67.49;100490.81;5056089;28;45383;-51
2022/12/12 08:54:55;;;;;;;;;42.75;32.25;;;;;0.33;67.33;100485.28;5056358;28;45647;-54
2022/12/12 08:57:21;;;;;;;;;42.75;36.00;;;;;0.40;66.80;100495.31;5038845;27;45841;-53
2022/12/12 08:59:47;;;;;;;;;38.75;30.75;;;;;0.36;66.77;100483.13;5076396;28;45422;-51
2022/12/12 09:02:12;;;;;;;;;30.75;26.00;;;;;0.44;66.44;100493.16;5075599;27;45527;-49
2022/12/12 09:04:38;;;;;;;;;40.50;35.25;;;;;0.17;66.55;100459.78;5077506;27;45546;-54
2022/12/12 09:07:05;;;;;;;;;40.50;32.25;;;;;0.39;66.86;100490.06;5040385;27;46708;-53
2022/12/12 09:09:31;;;;;;;;;37.75;34.50;;;;;0.40;66.61;100478.25;5046553;28;45427;-56
2022/12/12 09:11:57;;;;;;;;;39.50;32.00;;;;;0.50;67.00;100489.00;5055075;28;45322;-56
2022/12/12 09:14:22;;;;;;;;;42.25;37.00;;;;;0.56;66.10;100493.78;5057041;28;45585;-51
2022/12/12 09:16:48;;;;;;;;;49.00;39.25;;;;;0.58;66.57;100499.88;5057021;28;46493;-53
2022/12/12 09:19:14;;;;;;;;;46.50;37.25;;;;;0.60;66.53;100491.63;5056831;28;45514;-53
2022/12/12 09:21:39;;;;;;;;;41.50;35.75;;;;;0.69;66.39;100492.56;5056846;28;45772;-52
2022/12/12 09:24:05;;;;;;;;;45.00;35.50;;;;;0.52;66.00;100454.56;5056190;28;45229;-53
2022/12/12 09:26:31;;;;;;;;;45.50;32.50;;;;;0.71;66.11;100477.06;5056556;28;46375;-52
2022/12/12 09:28:56;;;;;;;;;39.00;30.25;;;;;0.74;65.60;100477.59;5056725;28;45519;-52
2022/12/12 09:31:22;;;;;;;;;43.00;36.00;;;;;0.30;65.82;100399.16;5056827;28;45354;-55
2022/12/12 09:33:47;;;;;;;;;50.50;40.50;;;;;0.84;65.24;100474.81;5067088;28;45385;-55
2022/12/12 09:36:13;;;;;;;;;37.25;34.75;;;;;0.62;65.10;100430.19;5076660;28;46374;-50
2022/12/12 09:38:39;;;;;;;;;37.00;32.50;;;;;0.89;65.19;100468.94;5076530;27;45505;-52
2022/12/12 09:41:16;;;;;;;;;41.00;33.00;;;;;0.87;64.74;100474.53;5076996;27;45466;-52
2022/12/12 09:44:04;;;;;;;;;42.00;34.00;;;;;0.78;65.19;100459.22;5075872;28;45453;-59
2022/12/12 09:46:34;;;;;;;;;35.75;32.50;;;;;0.94;64.56;100477.44;5074098;28;46541;-56
2022/12/12 09:49:06;;;;;;;;;39.50;33.00;;;;;0.96;64.69;100469.19;5043726;27;45445;-56
2022/12/12 09:51:31;;;;;;;;;35.50;33.25;;;;;0.86;64.98;100453.88;5074869;28;45438;-58
2022/12/12 09:53:57;;;;;;;;;40.50;33.25;;;;;0.92;64.43;100477.59;5055885;28;45986;-60
2022/12/12 09:56:58;;;;;;;;;44.00;37.00;;;;;0.88;64.57;100473.50;5073247;28;45840;-56
2022/12/12 09:59:33;;;;;;;;;40.25;35.00;;;;;0.51;65.07;100434.84;5015395;28;45406;-57
2022/12/12 10:02:01;;;;;;;;;50.75;36.75;;;;;0.84;65.22;100476.69;5053552;28;45361;-58
2022/12/12 10:04:41;;;;;;;;;50.50;36.00;;;;;0.83;65.44;100474.97;5065015;28;45525;-54
2022/12/12 10:07:15;;;;;;;;;51.00;36.00;;;;;0.73;65.01;100442.63;5053623;28;46471;-56
2022/12/12 10:10:16;;;;;;;;;45.25;39.25;;;;;0.90;64.79;100463.38;5070761;28;45491;-59
2022/12/12 10:12:42;;;;;;;;;52.25;41.50;;;;;0.94;64.26;100459.38;5073823;28;45392;-57
2022/12/12 10:15:19;;;;;;;;;41.50;36.75;;;;;1.01;64.47;100450.66;5073787;28;45392;-58
2022/12/12 10:17:45;;;;;;;;;46.75;40.00;;;;;1.03;64.88;100437.81;5056535;28;46053;-57
2022/12/12 10:20:30;;;;;;;;;50.75;39.75;;;;;1.05;64.33;100442.06;5074726;27;45915;-52
2022/12/12 10:23:24;;;;;;;;;53.50;43.25;;;;;1.07;64.31;100445.44;5073598;28;45470;-52
2022/12/12 10:26:00;;;;;;;;;39.75;31.75;;;;;0.87;64.07;100409.66;5074158;27;45393;-58
2022/12/12 10:28:27;;;;;;;;;60.00;41.50;;;;;1.11;63.67;100440.56;5071235;28;45820;-57
2022/12/12 10:30:55;;;;;;;;;40.75;36.25;;;;;1.08;63.36;100443.59;5053257;28;45436;-58
2022/12/12 10:33:30;;;;;;;;;39.25;37.50;;;;;0.98;63.61;100435.59;5059376;28;45741;-57
2022/12/12 10:36:07;;;;;;;;;42.25;34.25;;;;;1.01;63.02;100461.47;5073915;28;45476;-55
2022/12/12 10:38:51;;;;;;;;;48.00;41.50;;;;;1.00;63.72;100470.59;5030638;28;46310;-58
2022/12/12 10:41:26;;;;;;;;;54.50;43.75;;;;;0.99;63.68;100469.72;5072979;28;45553;-57
2022/12/12 10:44:11;;;;;;;;;46.50;41.00;;;;;1.03;63.78;100464.84;5056411;28;45797;-57
2022/12/12 10:46:43;;;;;;;;;62.67;49.67;;;;;0.95;63.64;100435.88;5073316;28;45903;-58
2022/12/12 10:49:16;;;;;;;;;58.33;44.67;;;;;0.87;62.76;100404.25;5048206;28;47219;-59
2022/12/12 10:51:42;;;;;;;;;42.25;34.25;;;;;1.17;62.57;100445.34;5036545;28;45627;-57
2022/12/12 10:54:19;;;;;;;;;47.50;36.00;;;;;1.24;62.08;100442.03;5065265;28;45371;-60
2022/12/12 10:57:03;;;;;;;;;40.75;33.00;;;;;1.20;62.55;100439.66;5072572;28;45345;-57
2022/12/12 10:59:29;;;;;;;;;45.00;39.00;;;;;1.10;62.71;100452.41;5073621;27;46386;-59
2022/12/12 11:01:58;;;;;;;;;39.75;34.25;;;;;0.82;62.61;100398.47;5055613;28;45437;-57
2022/12/12 11:04:24;;;;;;;;;37.25;35.00;;;;;0.66;63.06;100358.66;5055387;28;45467;-57
2022/12/12 11:06:51;;;;;;;;;44.50;38.00;;;;;1.19;63.10;100419.00;5025159;28;45647;-58
2022/12/12 11:09:27;;;;;;;;;52.75;41.00;;;;;1.35;63.06;100403.91;5053789;28;45539;-58
2022/12/12 11:11:58;;;;;;;;;45.75;36.00;;;;;1.50;62.00;100406.88;5071545;27;45332;-57
2022/12/12 11:14:47;;;;;;;;;47.25;37.50;;;;;1.55;62.15;100392.88;5063956;28;45533;-60
2022/12/12 11:17:20;;;;;;;;;52.25;42.25;;;;;1.65;61.72;100387.34;5056780;27;45394;-53
2022/12/12 11:19:45;;;;;;;;;40.25;27.75;;;;;1.52;61.12;100356.16;5044810;28;46995;-57
2022/12/12 11:22:11;;;;;;;;;48.00;39.25;;;;;1.81;61.16;100370.31;5050292;28;45427;-53
2022/12/12 11:24:37;;;;;;;;;42.50;40.25;;;;;1.97;60.67;100362.22;5063760;28;45377;-56
2022/12/12 11:27:04;;;;;;;;;38.25;30.75;;;;;2.95;58.90;100356.22;5071273;28;46036;-58
2022/12/12 11:29:33;;;;;;;;;51.00;42.50;;;;;6.17;51.83;100351.25;5069298;28;46146;-57
2022/12/12 11:31:59;;;;;;;;;45.00;39.75;;;;;5.75;51.98;100348.19;5064266;28;45479;-54
2022/12/12 11:34:25;;;;;;;;;44.00;39.25;;;;;5.51;49.66;100295.72;5064551;28;45472;-54
2022/12/12 11:36:50;;;;;;;;;50.75;36.00;;;;;4.71;52.62;100356.06;5067347;28;45584;-52
2022/12/12 11:39:44;;;;;;;;;53.00;42.75;;;;;4.07;53.39;100359.94;5070749;28;45317;-53